NCAR-RAP Real-Time Weather Data

Output produced by METARs form (14 October 2019  22:59 UTC)
found at http://weather.rap.ucar.edu/surface/
 
KDTW 142253Z 25005KT 10SM FEW050 SCT200 10/01 A3007 RMK AO2 SLP186 T01000006
KDTW 142153Z 29006KT 10SM SCT050 10/01 A3006 RMK AO2 SLP183 T01000011
KDTW 142053Z 29010KT 10SM BKN050 12/01 A3007 RMK AO2 SLP183 T01170006 53006
KDTW 141953Z 27010KT 10SM BKN050 11/01 A3006 RMK AO2 SLP180 T01060011
KDTW 141853Z 28010KT 10SM OVC045 10/01 A3004 RMK AO2 SLP175 T01000006
KDTW 141753Z 25011KT 10SM OVC050 11/01 A3005 RMK AO2 SLP177 T01060011 10111 20067 50001
KDTW 141653Z 26009G19KT 10SM FEW038 SCT047 11/01 A3005 RMK AO2 SLP178 T01110011
KDTW 141553Z 26011KT 10SM SCT032 BKN055 10/02 A3005 RMK AO2 SLP179 T01000017
KDTW 141453Z 27010KT 10SM FEW025 OVC055 09/02 A3004 RMK AO2 SLP176 T00890017 51019
KDTW 141353Z 25010KT 10SM FEW030 OVC055 08/02 A3003 RMK AO2 SLP172 T00780017
KDTW 141253Z 25012KT 10SM FEW035 OVC060 08/01 A3001 RMK AO2 SLP164 T00780011
KDTW 141153Z 25007KT 10SM SCT035 BKN055 OVC100 07/02 A2999 RMK AO2 SLP156 T00670017 10083 20067 51018
KDTW 141053Z 24008KT 10SM BKN038 BKN065 OVC160 07/02 A2997 RMK AO2 SLP150 T00670022
KDTW 140953Z 22008KT 10SM SCT038 BKN075 OVC160 07/03 A2995 RMK AO2 SLP143 T00720033
KDTW 140853Z 23007KT 10SM BKN038 OVC075 08/03 A2993 RMK AO2 SLP136 T00830033 53009
KDTW 140753Z 23007KT 10SM SCT040 OVC080 08/03 A2992 RMK AO2 SLP131 T00830028
KDTW 140653Z 23008KT 10SM FEW045 OVC085 08/03 A2991 RMK AO2 SLP130 T00830028
KDTW 140553Z 27006KT 10SM SCT045 OVC095 08/03 A2991 RMK AO2 SLP128 T00830028 10133 20083 51005
KDTW 140453Z 28005KT 10SM FEW045 BKN095 OVC140 08/02 A2990 RMK AO2 SLP126 T00830022 401720067
KDTW 140353Z 28004KT 10SM SCT100 OVC140 08/02 A2990 RMK AO2 SLP126 T00830022
KDTW 140253Z 30007KT 10SM FEW090 OVC110 09/02 A2989 RMK AO2 SLP123 T00890022 51019
KDTW 140153Z 32007KT 10SM OVC090 09/02 A2988 RMK AO2 SLP121 T00940017
KDTW 140053Z 32009KT 10SM OVC100 11/02 A2986 RMK AO2 SLP115 T01060017
KDTW 132353Z 31008KT 10SM FEW070 BKN130 OVC190 13/00 A2983 RMK AO2 SLP104 T01280000 10172 20128 53021
KDTW 132253Z 25009KT 10SM FEW070 BKN130 BKN250 15/M02 A2980 RMK AO2 SLP093 T01501017
KDTW 132153Z 24014G23KT 10SM FEW070 FEW110 SCT250 17/M01 A2979 RMK AO2 PK WND 23031/2107 SLP087 T01671011
KDTW 132053Z 23019G31KT 10SM FEW050 FEW110 17/00 A2977 RMK AO2 PK WND 22034/2025 SLP081 T01720000 56015
KDTW 131953Z 23024G34KT 10SM FEW050 FEW110 17/00 A2978 RMK AO2 PK WND 22036/1927 SLP086 T01720000
KDTW 131853Z 21020G30KT 10SM FEW045 FEW250 17/02 A2979 RMK AO2 PK WND 22030/1848 SLP089 T01670017
KDTW 131753Z 21021G28KT 10SM FEW050 FEW250 16/03 A2981 RMK AO2 PK WND 21028/1752 SLP096 T01560028 10161 20067 58020
KDTW 131653Z 21018G26KT 10SM FEW120 FEW250 14/03 A2984 RMK AO2 PK WND 20026/1653 SLP108 T01440033
KDTW 131553Z 22015KT 10SM FEW100 FEW250 13/03 A2986 RMK AO2 SLP115 T01280028
KDTW 131453Z 22015KT 10SM FEW080 FEW200 12/02 A2987 RMK AO2 SLP117 T01170022 58008
KDTW 131353Z 20015KT 10SM FEW080 FEW250 09/01 A2988 RMK AO2 SLP121 T00940011
KDTW 131253Z 20012KT 10SM FEW080 FEW200 08/01 A2990 RMK AO2 SLP127 T00780011
KDTW 131153Z 20011KT 10SM FEW180 FEW250 07/01 A2990 RMK AO2 SLP127 T00720006 10072 20067 57012
KDTW 131053Z 20012KT 10SM FEW250 07/00 A2991 RMK AO2 SLP130 T00720000
KDTW 130953Z 21012KT 10SM FEW250 07/00 A2992 RMK AO2 SLP135 T00720000
KDTW 130853Z 20013KT 10SM FEW250 07/01 A2993 RMK AO2 SLP137 T00670006 58007
KDTW 130753Z 20013KT 10SM FEW250 07/00 A2994 RMK AO2 SLP142 T00670000
KDTW 130653Z 20012KT 10SM FEW250 07/00 A2995 RMK AO2 SLP145 T00720000
KDTW 130553Z 20013KT 10SM FEW250 07/00 A2995 RMK AO2 SLP146 T00720000 10078 20067 58010
KDTW 130453Z 19010KT 10SM FEW250 07/00 A2997 RMK AO2 SLP151 T00670000 401060039
KDTW 130353Z 20010KT 10SM FEW170 FEW250 07/M01 A2998 RMK AO2 SLP155 T00721006
KDTW 130253Z 19011KT 10SM FEW170 FEW250 08/M01 A2998 RMK AO2 SLP157 T00781006 55000
KDTW 130153Z 18010KT 10SM FEW170 FEW250 08/M01 A2998 RMK AO2 SLP155 T00781011
KDTW 130053Z 18009KT 10SM FEW170 FEW250 07/M01 A2999 RMK AO2 SLP159 T00721011
KDTW 122353Z 17008KT 10SM FEW250 07/M01 A2998 RMK AO2 SLP158 T00721006 10106 20072 56005